createdAt,value
2019-01-24T08:25:08.921Z,806
2019-01-24T08:25:25.788Z,788
2019-01-24T08:25:42.555Z,746
2019-01-24T08:25:59.267Z,732
2019-01-24T08:26:16.130Z,643
2019-01-24T08:26:32.727Z,622
2019-01-24T08:26:49.155Z,624
2019-01-24T08:27:05.591Z,624
2019-01-24T08:27:21.803Z,614
2019-01-24T08:27:37.858Z,621
2019-01-24T08:27:53.721Z,615
2019-01-24T08:28:09.586Z,613
2019-01-24T08:28:25.448Z,612
2019-01-24T08:28:41.337Z,610
2019-01-24T08:28:57.212Z,613
2019-01-24T08:29:13.069Z,614
2019-01-24T08:29:28.927Z,612
2019-01-24T08:29:44.792Z,605
2019-01-24T08:30:00.970Z,607
2019-01-24T08:30:17.163Z,608
2019-01-24T08:30:33.325Z,600
2019-01-24T08:30:49.241Z,597
2019-01-24T08:31:05.140Z,587
2019-01-24T08:31:21.040Z,591
2019-01-24T08:31:36.942Z,591
2019-01-24T08:31:52.832Z,594
2019-01-24T08:32:08.693Z,600
2019-01-24T08:32:24.556Z,600
2019-01-24T08:32:40.404Z,603
2019-01-24T08:32:56.256Z,605
2019-01-24T08:33:12.190Z,602
2019-01-24T08:33:28.058Z,611
2019-01-24T08:33:43.939Z,616
2019-01-24T08:33:59.792Z,612
2019-01-24T08:34:15.686Z,615
2019-01-24T08:34:31.561Z,617
2019-01-24T08:34:47.470Z,620
2019-01-24T08:35:03.399Z,622
2019-01-24T08:35:19.284Z,617
2019-01-24T08:35:35.131Z,622
2019-01-24T08:35:50.971Z,621
2019-01-24T08:36:06.846Z,625
2019-01-24T08:36:23.255Z,623
2019-01-24T08:36:39.204Z,621
2019-01-24T08:36:55.040Z,622
2019-01-24T08:37:10.927Z,635
2019-01-24T08:37:26.764Z,634
2019-01-24T08:37:42.607Z,628
2019-01-24T08:37:58.458Z,625
2019-01-24T08:38:14.336Z,622
2019-01-24T08:38:30.200Z,625
2019-01-24T08:38:46.057Z,628
2019-01-24T08:39:01.928Z,634
2019-01-24T08:39:17.780Z,637
2019-01-24T08:39:33.641Z,639
2019-01-24T08:39:49.567Z,641
2019-01-24T08:40:05.452Z,639
2019-01-24T08:40:21.294Z,637
2019-01-24T08:40:37.146Z,641
2019-01-24T08:40:53.004Z,625
2019-01-24T08:41:08.864Z,658
2019-01-24T08:41:24.729Z,658
2019-01-24T08:41:40.560Z,639
2019-01-24T08:41:56.394Z,642
2019-01-24T08:42:12.231Z,646
2019-01-24T08:42:28.280Z,648
2019-01-24T08:42:44.268Z,658
2019-01-24T08:43:00.133Z,668
2019-01-24T08:43:15.976Z,677
2019-01-24T08:43:31.849Z,678
2019-01-24T08:43:47.703Z,689
2019-01-24T08:44:03.534Z,724
2019-01-24T08:44:19.382Z,717
2019-01-24T08:44:35.237Z,731
2019-01-24T08:44:51.093Z,749
2019-01-24T08:45:06.965Z,755
2019-01-24T08:45:22.793Z,749
2019-01-24T08:45:38.721Z,740
2019-01-24T08:45:54.663Z,745
2019-01-24T08:46:10.534Z,749
2019-01-24T08:46:26.429Z,754
2019-01-24T08:46:42.301Z,757
2019-01-24T08:46:58.169Z,773
2019-01-24T08:47:14.005Z,787
2019-01-24T08:47:29.842Z,790
2019-01-24T08:47:45.716Z,797
2019-01-24T08:48:01.549Z,798
2019-01-24T08:48:17.427Z,810
2019-01-24T08:48:33.515Z,822
2019-01-24T08:48:49.545Z,826
2019-01-24T08:49:05.427Z,828
2019-01-24T08:49:21.241Z,828
2019-01-24T08:49:37.053Z,834
2019-01-24T08:49:52.896Z,832
2019-01-24T08:50:08.743Z,834
2019-01-24T08:50:24.591Z,836
2019-01-24T08:50:40.423Z,837
2019-01-24T08:50:56.374Z,838
2019-01-24T08:51:12.264Z,829
2019-01-24T08:51:28.120Z,867
2019-01-24T08:51:43.979Z,875
2019-01-24T08:51:59.846Z,878
2019-01-24T08:52:20.589Z,880
2019-01-24T08:52:36.441Z,881
2019-01-24T08:52:52.348Z,879
2019-01-24T08:53:08.219Z,879
2019-01-24T08:53:24.063Z,878
2019-01-24T08:53:39.901Z,876
2019-01-24T08:53:55.781Z,877
2019-01-24T08:54:11.695Z,877
2019-01-24T08:54:27.510Z,877
2019-01-24T08:54:43.351Z,877
2019-01-24T08:54:59.204Z,877
2019-01-24T08:55:15.041Z,876
2019-01-24T08:55:30.914Z,874
2019-01-24T08:55:46.735Z,873
2019-01-24T08:56:02.569Z,870
2019-01-24T08:56:18.429Z,871
2019-01-24T08:56:34.247Z,865
2019-01-24T08:56:50.126Z,865
2019-01-24T08:57:06.031Z,862
2019-01-24T08:57:21.894Z,857
2019-01-24T08:57:37.755Z,862
2019-01-24T08:57:53.570Z,861
2019-01-24T08:58:09.404Z,858
2019-01-24T08:58:25.404Z,862
2019-01-24T08:58:41.249Z,874
2019-01-24T08:58:57.068Z,876
2019-01-24T08:59:12.911Z,869
2019-01-24T08:59:29.621Z,871
2019-01-24T08:59:45.758Z,873
2019-01-24T09:00:01.607Z,874
2019-01-24T09:00:17.469Z,874
2019-01-24T09:00:33.322Z,875
2019-01-24T09:00:49.209Z,876
2019-01-24T09:01:05.046Z,875
2019-01-24T09:01:20.873Z,875
2019-01-24T09:01:36.705Z,875
2019-01-24T09:01:52.544Z,876
2019-01-24T09:02:08.379Z,876
2019-01-24T09:02:24.203Z,863
2019-01-24T09:02:40.130Z,840
2019-01-24T09:02:55.988Z,835
